createdAt,value
2018-12-01T00:02:20.238Z,8.40
2018-12-01T00:07:23.827Z,8.27
2018-12-01T00:12:27.500Z,8.03
2018-12-01T00:17:30.954Z,8.63
2018-12-01T00:22:34.438Z,9.00
2018-12-01T00:27:37.836Z,8.27
2018-12-01T00:32:41.828Z,8.13
2018-12-01T00:37:45.519Z,8.40
2018-12-01T00:42:49.250Z,8.88
2018-12-01T00:47:53.575Z,8.40
2018-12-01T00:52:57.267Z,8.47
2018-12-01T00:58:00.902Z,7.83
2018-12-01T01:03:04.358Z,8.33
2018-12-01T01:08:07.904Z,8.40
2018-12-01T01:13:11.406Z,8.53
2018-12-01T01:18:14.726Z,8.30
2018-12-01T01:23:18.379Z,8.77
2018-12-01T01:28:21.832Z,8.77
2018-12-01T01:33:29.424Z,8.63
2018-12-01T01:38:32.932Z,8.70
2018-12-01T01:43:37.071Z,8.20
2018-12-01T01:48:40.704Z,8.47
2018-12-01T01:53:44.078Z,8.63
2018-12-01T01:58:47.601Z,8.83
2018-12-01T02:03:51.190Z,8.97
2018-12-01T02:08:55.031Z,8.03
2018-12-01T02:13:58.591Z,8.93
2018-12-01T02:19:02.031Z,8.37
2018-12-01T02:24:05.647Z,7.97
2018-12-01T02:29:09.148Z,8.60
2018-12-01T02:34:12.615Z,8.00
2018-12-01T02:39:16.082Z,8.70
2018-12-01T02:44:31.021Z,8.33
2018-12-01T02:49:34.458Z,7.90
2018-12-01T02:54:37.958Z,8.00
2018-12-01T02:59:41.495Z,8.13
2018-12-01T03:04:44.963Z,8.83
2018-12-01T03:09:48.494Z,8.10
2018-12-01T03:14:51.966Z,8.83
2018-12-01T03:19:55.382Z,8.23
2018-12-01T03:24:58.844Z,8.30
2018-12-01T03:30:02.765Z,8.20
2018-12-01T03:35:12.295Z,8.30
2018-12-01T03:40:16.355Z,8.68
2018-12-01T03:45:20.652Z,8.40
2018-12-01T03:50:25.691Z,8.20
2018-12-01T03:55:32.502Z,8.20
2018-12-01T04:00:36.563Z,8.47
2018-12-01T04:05:40.039Z,9.57
2018-12-01T04:10:43.402Z,9.30
2018-12-01T04:15:46.680Z,8.80
2018-12-01T04:20:51.004Z,9.17
2018-12-01T04:25:55.001Z,8.63
2018-12-01T04:30:59.600Z,8.80
2018-12-01T04:36:02.873Z,8.67
2018-12-01T04:41:06.243Z,9.37
2018-12-01T04:46:09.461Z,9.10
2018-12-01T04:51:12.675Z,8.40
2018-12-01T04:56:15.990Z,10.37
2018-12-01T05:01:19.293Z,8.73
2018-12-01T05:06:22.618Z,8.67
2018-12-01T05:11:25.839Z,8.80
2018-12-01T05:16:29.366Z,8.60
2018-12-01T05:21:32.682Z,9.37
2018-12-01T05:26:35.952Z,9.47
2018-12-01T05:31:39.251Z,8.60
2018-12-01T05:36:42.671Z,8.00
2018-12-01T05:41:46.162Z,9.70
2018-12-01T05:46:49.389Z,8.67
2018-12-01T05:51:53.237Z,8.80
2018-12-01T05:56:56.598Z,9.20
2018-12-01T06:01:59.849Z,9.50
2018-12-01T06:07:03.167Z,9.47
2018-12-01T06:12:06.412Z,9.07
2018-12-01T06:17:09.650Z,9.07
2018-12-01T06:22:13.939Z,8.53
2018-12-01T06:27:17.266Z,8.23
2018-12-01T06:32:20.504Z,7.83
2018-12-01T06:37:23.909Z,8.27
2018-12-01T06:42:27.141Z,9.43
2018-12-01T06:47:30.547Z,7.60
2018-12-01T06:52:33.859Z,8.53
2018-12-01T06:57:37.335Z,8.93
2018-12-01T07:02:40.676Z,8.40
2018-12-01T07:07:44.143Z,8.53
2018-12-01T07:12:51.192Z,8.17
2018-12-01T07:17:54.475Z,7.97
2018-12-01T07:22:57.918Z,8.10
2018-12-01T07:28:01.422Z,7.70
2018-12-01T07:33:04.738Z,7.63
2018-12-01T07:38:07.999Z,7.37
2018-12-01T07:43:11.446Z,6.93
2018-12-01T07:48:14.694Z,7.63
2018-12-01T07:53:18.238Z,7.43
2018-12-01T07:58:21.569Z,7.40
2018-12-01T08:03:25.158Z,7.77
2018-12-01T08:08:28.750Z,9.23
2018-12-01T08:13:32.287Z,7.27
2018-12-01T08:18:35.566Z,6.60
2018-12-01T08:23:40.003Z,7.03
2018-12-01T08:28:43.374Z,7.23
2018-12-01T08:33:47.490Z,6.57
2018-12-01T08:38:51.418Z,6.93
2018-12-01T08:43:54.891Z,8.17
2018-12-01T08:48:58.193Z,7.10
2018-12-01T08:54:01.743Z,7.00
2018-12-01T08:59:06.288Z,7.10
2018-12-01T09:04:09.948Z,6.83
2018-12-01T09:09:13.573Z,6.60
2018-12-01T09:14:17.199Z,8.77
2018-12-01T09:19:20.857Z,7.13
2018-12-01T09:24:24.459Z,6.93
2018-12-01T09:29:27.953Z,7.03
2018-12-01T09:34:57.354Z,6.97
2018-12-01T09:40:01.036Z,6.43
2018-12-01T09:45:05.019Z,6.63
2018-12-01T09:50:11.452Z,6.20
2018-12-01T09:55:16.331Z,6.90
2018-12-01T10:00:21.408Z,6.40
2018-12-01T10:05:24.727Z,5.70
2018-12-01T10:10:28.339Z,6.23
2018-12-01T10:15:34.337Z,5.73
2018-12-01T10:20:38.688Z,5.63
2018-12-01T10:25:41.400Z,5.77
2018-12-01T10:30:44.593Z,5.65
2018-12-01T10:35:47.762Z,5.20
2018-12-01T10:40:51.002Z,5.73
2018-12-01T10:45:54.186Z,5.53
2018-12-01T10:50:57.638Z,5.20
2018-12-01T10:56:01.001Z,5.50
2018-12-01T11:02:10.095Z,5.20
2018-12-01T11:07:13.692Z,5.30
2018-12-01T11:12:18.230Z,5.07
2018-12-01T11:17:22.893Z,4.97
2018-12-01T11:22:27.307Z,5.10
2018-12-01T11:27:31.412Z,5.47
2018-12-01T11:32:34.622Z,4.53
2018-12-01T11:37:38.707Z,5.33
2018-12-01T11:42:42.375Z,4.80
2018-12-01T11:47:45.903Z,4.20
2018-12-01T11:52:50.140Z,3.80
2018-12-01T11:57:54.092Z,4.23
2018-12-01T12:02:58.198Z,4.17
2018-12-01T12:08:16.831Z,3.93
2018-12-01T12:13:21.239Z,4.27
2018-12-01T12:18:25.683Z,4.07
2018-12-01T12:23:29.139Z,3.97
2018-12-01T12:28:33.470Z,3.77
2018-12-01T12:33:38.715Z,3.33
2018-12-01T12:38:42.088Z,4.60
2018-12-01T12:43:45.373Z,3.47
2018-12-01T12:48:48.786Z,3.83
2018-12-01T12:53:53.365Z,3.53
2018-12-01T12:58:56.831Z,3.47
2018-12-01T13:04:00.194Z,3.13
2018-12-01T13:09:03.441Z,3.37
2018-12-01T13:14:06.662Z,3.30
2018-12-01T13:19:10.002Z,3.27
2018-12-01T13:24:13.286Z,3.37
2018-12-01T13:29:16.583Z,3.40
2018-12-01T13:34:19.829Z,3.13
2018-12-01T13:39:23.126Z,3.23
2018-12-01T13:44:26.510Z,2.93
2018-12-01T13:49:29.950Z,2.83
2018-12-01T13:54:33.355Z,2.60
2018-12-01T13:59:36.726Z,2.80
2018-12-01T14:04:39.976Z,2.50
2018-12-01T14:09:43.356Z,2.37
2018-12-01T14:14:46.701Z,2.70
2018-12-01T14:19:50.049Z,2.47
2018-12-01T14:24:53.371Z,3.70
2018-12-01T14:29:56.612Z,4.37
2018-12-01T14:35:00.159Z,11.93
2018-12-01T14:40:04.321Z,4.17
2018-12-01T14:45:10.500Z,3.87
2018-12-01T14:50:14.788Z,4.22
2018-12-01T14:55:18.514Z,3.57
2018-12-01T15:00:23.843Z,4.47
2018-12-01T15:05:27.423Z,5.20
2018-12-01T15:10:30.711Z,3.70
2018-12-01T15:15:34.227Z,3.53
2018-12-01T15:20:38.113Z,3.30
2018-12-01T15:25:43.022Z,2.70
2018-12-01T15:30:46.468Z,2.97
2018-12-01T15:35:49.730Z,3.10
2018-12-01T15:40:53.078Z,2.90
2018-12-01T15:45:56.351Z,3.30
2018-12-01T15:50:59.532Z,3.00
2018-12-01T15:56:02.723Z,3.50
2018-12-01T16:01:06.618Z,3.77
2018-12-01T16:06:09.840Z,3.80
2018-12-01T16:11:13.063Z,3.30
2018-12-01T16:16:16.605Z,3.50
2018-12-01T16:21:19.969Z,3.20
2018-12-01T16:26:23.358Z,3.20
2018-12-01T16:31:26.650Z,2.93
2018-12-01T16:36:29.921Z,3.27
2018-12-01T16:41:35.115Z,4.03
2018-12-01T16:46:38.462Z,3.87
2018-12-01T16:51:41.644Z,4.90
2018-12-01T16:56:44.890Z,5.00
2018-12-01T17:01:48.054Z,5.13
2018-12-01T17:06:51.364Z,5.23
2018-12-01T17:11:54.550Z,4.78
2018-12-01T17:16:57.733Z,5.50
2018-12-01T17:22:00.936Z,6.17
2018-12-01T17:27:04.128Z,5.30
2018-12-01T17:32:07.332Z,5.10
2018-12-01T17:37:10.570Z,5.53
2018-12-01T17:42:13.814Z,5.23
2018-12-01T17:47:17.028Z,6.30
2018-12-01T17:52:20.197Z,5.77
2018-12-01T17:57:23.395Z,5.93
2018-12-01T18:02:26.618Z,6.37
2018-12-01T18:07:29.850Z,5.73
2018-12-01T18:12:33.086Z,6.23
2018-12-01T18:17:36.366Z,5.60
2018-12-01T18:22:39.783Z,6.12
2018-12-01T18:27:43.117Z,5.90
2018-12-01T18:32:46.950Z,5.73
2018-12-01T18:37:50.319Z,5.73
2018-12-01T18:42:53.954Z,6.93
2018-12-01T18:47:57.472Z,6.27
2018-12-01T18:53:02.437Z,6.17
2018-12-01T18:58:07.397Z,8.13
2018-12-01T19:03:10.981Z,7.37
2018-12-01T19:08:14.234Z,7.27
2018-12-01T19:13:17.727Z,7.77
2018-12-01T19:18:21.083Z,8.67
2018-12-01T19:23:24.643Z,8.17
2018-12-01T19:28:28.141Z,7.20
2018-12-01T19:33:31.616Z,7.67
2018-12-01T19:38:35.049Z,6.90
2018-12-01T19:43:38.542Z,7.77
2018-12-01T19:48:41.911Z,7.67
2018-12-01T19:53:45.096Z,7.40
2018-12-01T19:58:48.402Z,6.83
2018-12-01T20:03:51.923Z,7.43
2018-12-01T20:08:55.096Z,6.93
2018-12-01T20:13:58.627Z,6.60
2018-12-01T20:19:02.131Z,6.03
2018-12-01T20:24:06.790Z,6.07
2018-12-01T20:29:37.345Z,6.27
2018-12-01T20:34:40.654Z,6.03
2018-12-01T20:39:45.222Z,6.37
2018-12-01T20:44:48.856Z,5.40
2018-12-01T20:49:52.406Z,5.60
2018-12-01T20:54:55.745Z,5.80
2018-12-01T20:59:59.634Z,5.40
2018-12-01T21:05:03.744Z,5.10
2018-12-01T21:10:17.974Z,6.00
2018-12-01T21:15:21.539Z,5.42
2018-12-01T21:20:24.905Z,5.27
2018-12-01T21:25:28.670Z,5.67
2018-12-01T21:30:32.124Z,5.53
2018-12-01T21:35:35.384Z,5.40
2018-12-01T21:40:39.185Z,5.07
2018-12-01T21:45:43.348Z,5.87
2018-12-01T21:50:47.369Z,5.97
2018-12-01T21:55:50.908Z,5.50
2018-12-01T22:00:56.966Z,5.60
2018-12-01T22:06:02.280Z,5.53
2018-12-01T22:11:06.130Z,5.63
2018-12-01T22:16:09.897Z,6.00
2018-12-01T22:21:13.406Z,5.60
2018-12-01T22:26:16.722Z,6.57
2018-12-01T22:31:19.967Z,5.70
2018-12-01T22:36:23.203Z,5.80
2018-12-01T22:41:26.502Z,6.40
2018-12-01T22:46:29.727Z,7.00
2018-12-01T22:51:33.122Z,6.40
2018-12-01T22:56:36.333Z,6.33
2018-12-01T23:01:40.278Z,6.27
2018-12-01T23:06:44.082Z,6.90
2018-12-01T23:11:47.335Z,6.40
2018-12-01T23:16:50.578Z,6.23
2018-12-01T23:21:53.882Z,5.80
2018-12-01T23:26:57.109Z,6.37
2018-12-01T23:32:00.353Z,6.40
2018-12-01T23:37:04.082Z,6.73
2018-12-01T23:42:07.398Z,6.43
2018-12-01T23:47:10.660Z,6.43
2018-12-01T23:52:14.199Z,6.73
2018-12-01T23:57:17.440Z,6.10
